createdAt,value
2019-05-07T01:52:27.065Z,5.56
2019-05-07T01:53:27.342Z,5.52
2019-05-07T01:56:03.331Z,5.46
2019-05-07T01:57:02.971Z,5.52
2019-05-07T02:00:02.381Z,5.44
2019-05-07T02:00:59.807Z,5.46
2019-05-07T02:01:59.750Z,5.41
2019-05-07T02:02:59.736Z,5.46
2019-05-07T02:03:59.716Z,5.41
2019-05-07T02:04:59.687Z,5.37
2019-05-07T02:05:59.623Z,5.40
2019-05-07T02:06:59.611Z,5.41
2019-05-07T02:07:59.608Z,5.41
2019-05-07T02:08:59.562Z,5.47
2019-05-07T02:09:59.545Z,5.44
2019-05-07T02:10:59.529Z,5.44
2019-05-07T02:11:59.523Z,5.40
2019-05-07T02:12:59.513Z,5.49
2019-05-07T02:13:59.473Z,5.36
2019-05-07T02:14:59.450Z,5.43
2019-05-07T02:16:01.867Z,5.43
2019-05-07T02:16:59.415Z,5.44
2019-05-07T02:17:59.429Z,5.40
2019-05-07T02:18:59.379Z,5.44
2019-05-07T02:19:59.358Z,5.38
2019-05-07T02:20:59.345Z,5.44
2019-05-07T02:21:59.324Z,5.40
2019-05-07T03:14:49.017Z,5.58
2019-05-07T03:15:49.100Z,5.67
2019-05-07T03:17:54.604Z,5.67
2019-05-07T03:18:54.804Z,5.65
2019-05-07T03:19:54.572Z,5.59
2019-05-07T03:20:54.544Z,5.62
2019-05-07T03:21:55.109Z,5.65
2019-05-07T03:22:54.514Z,5.59
2019-05-07T03:23:57.754Z,5.56
2019-05-07T05:19:25.134Z,6.95
2019-05-07T05:20:25.111Z,6.85
2019-05-07T05:22:29.187Z,7.05
2019-05-07T05:23:29.135Z,7.01
2019-05-07T05:25:33.291Z,7.10
2019-05-07T05:26:33.255Z,7.03
2019-05-07T05:28:37.681Z,7.28
2019-05-07T05:29:37.655Z,7.23
2019-05-07T05:31:42.312Z,7.33
2019-05-07T05:32:42.533Z,7.40
2019-05-07T05:34:46.468Z,7.53
2019-05-07T05:35:46.451Z,7.50
2019-05-07T05:37:52.043Z,7.69
2019-05-07T05:38:52.895Z,7.75
2019-05-07T05:40:55.287Z,7.74
2019-05-07T05:41:55.253Z,7.87
2019-05-07T05:43:59.696Z,7.93
2019-05-07T05:45:01.965Z,8.11
2019-05-07T05:47:04.112Z,8.14
2019-05-07T05:48:08.034Z,8.14
2019-05-07T05:49:57.427Z,8.20
2019-05-07T05:50:57.403Z,8.23
2019-05-07T05:53:02.785Z,8.31
2019-05-07T05:54:02.087Z,8.39
2019-05-07T05:56:06.279Z,8.44
2019-05-07T05:57:06.234Z,8.54
2019-05-07T05:59:12.152Z,8.57
2019-05-07T06:00:12.648Z,8.66
2019-05-07T06:01:12.959Z,8.77
2019-05-07T06:02:12.098Z,8.72
2019-05-07T06:03:11.944Z,8.89
2019-05-07T06:04:12.431Z,8.92
2019-05-07T06:05:12.495Z,8.89
2019-05-07T06:06:12.655Z,8.95
2019-05-07T06:07:13.945Z,9.00
2019-05-07T06:08:12.458Z,9.03
2019-05-07T06:09:12.321Z,9.18
2019-05-07T06:10:12.719Z,9.15
2019-05-07T06:11:11.851Z,9.21
2019-05-07T06:12:12.460Z,9.33
2019-05-07T06:13:12.318Z,9.31
2019-05-07T06:14:10.397Z,9.36
2019-05-07T06:15:12.536Z,9.31
2019-05-07T06:16:12.428Z,9.48
2019-05-07T06:17:10.351Z,9.51
2019-05-07T06:18:18.864Z,9.59
2019-05-07T06:19:10.320Z,9.59
2019-05-07T06:20:12.193Z,9.63
2019-05-07T06:21:12.465Z,9.66
2019-05-07T06:22:12.640Z,9.76
2019-05-07T06:23:12.702Z,9.59
2019-05-07T06:24:11.889Z,9.77
2019-05-07T06:25:10.219Z,9.74
2019-05-07T06:26:12.499Z,9.73
2019-05-07T06:27:12.159Z,9.73
2019-05-07T06:28:12.479Z,9.73
2019-05-07T06:29:11.904Z,9.84
2019-05-07T06:30:12.043Z,9.91
2019-05-07T06:31:12.123Z,9.82
2019-05-07T06:32:12.073Z,9.85
2019-05-07T06:33:12.251Z,9.88
2019-05-07T06:34:11.940Z,9.95
2019-05-07T06:35:12.145Z,9.97
2019-05-07T06:36:12.363Z,9.92
2019-05-07T06:37:11.872Z,9.88
2019-05-07T06:38:12.283Z,9.84
2019-05-07T06:39:09.995Z,9.81
2019-05-07T06:40:11.953Z,9.88
2019-05-07T06:41:12.065Z,9.85
2019-05-07T06:42:09.938Z,9.90
2019-05-07T06:43:10.351Z,9.90
2019-05-07T06:44:09.911Z,9.97
2019-05-07T06:45:12.241Z,10.05
2019-05-07T06:46:09.875Z,10.05
2019-05-07T06:47:09.860Z,10.12
2019-05-07T06:48:09.872Z,10.23
2019-05-07T06:49:09.826Z,10.38
2019-05-07T06:50:09.811Z,10.41
2019-05-07T06:51:09.795Z,10.43
2019-05-07T06:52:12.120Z,10.46
2019-05-07T06:53:11.948Z,10.49
2019-05-07T06:54:09.746Z,10.71
2019-05-07T06:55:09.732Z,10.69
2019-05-07T06:56:12.043Z,10.76
2019-05-07T06:57:09.715Z,10.71
2019-05-07T06:58:12.098Z,10.75
2019-05-07T06:59:09.669Z,10.79
2019-05-07T07:00:11.905Z,10.87
2019-05-07T07:01:11.961Z,10.90
2019-05-07T07:02:09.624Z,10.94
2019-05-07T07:03:09.607Z,11.02
2019-05-07T07:04:09.591Z,11.07
2019-05-07T07:05:09.575Z,11.16
2019-05-07T07:06:09.559Z,11.19
2019-05-07T07:07:24.030Z,11.20
2019-05-07T07:08:09.533Z,11.34
2019-05-07T07:09:09.509Z,11.26
2019-05-07T07:10:11.876Z,11.34
2019-05-07T07:11:09.483Z,11.34
2019-05-07T07:12:09.475Z,11.33
2019-05-07T07:13:11.866Z,11.38
2019-05-07T07:14:09.435Z,11.38
2019-05-07T07:15:12.069Z,11.45
2019-05-07T07:16:09.403Z,11.48
2019-05-07T07:17:09.388Z,11.56
2019-05-07T07:18:09.374Z,11.59
2019-05-07T07:19:09.361Z,11.62
2019-05-07T07:20:09.342Z,11.59
2019-05-07T07:21:09.328Z,11.74
2019-05-07T07:22:09.319Z,11.76
2019-05-07T07:23:09.296Z,11.76
2019-05-07T07:24:09.282Z,11.70
2019-05-07T07:25:09.265Z,11.73
2019-05-07T07:26:09.248Z,11.73
2019-05-07T07:27:09.547Z,11.77
2019-05-07T07:28:09.410Z,11.83
2019-05-07T07:29:09.204Z,11.96
2019-05-07T07:30:09.192Z,11.88
2019-05-07T07:31:09.176Z,12.00
2019-05-07T07:32:09.164Z,12.03
2019-05-07T07:33:09.146Z,12.08
2019-05-07T07:34:09.132Z,12.10
2019-05-07T07:35:09.120Z,12.14
2019-05-07T07:36:09.101Z,12.14
2019-05-07T07:37:12.525Z,12.21
2019-05-07T07:38:09.073Z,12.12
2019-05-07T07:39:09.056Z,12.25
2019-05-07T07:40:09.045Z,12.26
2019-05-07T07:41:09.027Z,12.21
2019-05-07T07:42:09.014Z,12.28
2019-05-07T07:43:08.999Z,12.23
2019-05-07T07:44:08.992Z,12.35
2019-05-07T07:45:08.965Z,12.39
2019-05-07T07:46:08.953Z,12.45
2019-05-07T07:47:08.961Z,12.61
2019-05-07T07:48:08.926Z,12.61
2019-05-07T07:49:12.418Z,12.58
2019-05-07T07:50:08.897Z,12.61
2019-05-07T07:51:08.878Z,12.62
2019-05-07T07:52:08.867Z,12.70
2019-05-07T07:53:08.850Z,12.62
2019-05-07T07:54:08.843Z,12.78
2019-05-07T07:55:08.824Z,12.73
2019-05-07T07:56:08.809Z,12.87
2019-05-07T07:57:08.796Z,12.90
2019-05-07T07:58:08.783Z,13.08
2019-05-07T07:59:08.762Z,13.20
2019-05-07T08:00:08.758Z,13.36
2019-05-07T08:01:08.738Z,13.33
2019-05-07T08:02:08.722Z,13.50
2019-05-07T08:03:08.726Z,13.54
2019-05-07T08:04:08.691Z,13.50
2019-05-07T08:05:08.683Z,13.54
2019-05-07T08:06:08.670Z,13.58
2019-05-07T08:07:08.655Z,13.64
2019-05-07T08:08:08.637Z,13.73
2019-05-07T08:09:08.624Z,13.70
2019-05-07T08:10:08.614Z,13.82
2019-05-07T08:11:08.593Z,13.89
2019-05-07T08:12:08.590Z,13.94
2019-05-07T08:13:08.586Z,14.03
2019-05-07T08:14:08.559Z,14.15
2019-05-07T08:15:16.701Z,14.08
2019-05-07T08:16:08.532Z,14.15
2019-05-07T08:17:08.520Z,14.22
2019-05-07T08:18:08.503Z,14.18
2019-05-07T08:19:21.363Z,14.18
2019-05-07T08:20:08.477Z,14.15
2019-05-07T08:21:08.461Z,14.08
2019-05-07T08:22:08.451Z,13.94
2019-05-07T08:23:08.437Z,13.91
2019-05-07T08:24:08.423Z,13.86
2019-05-07T08:25:08.409Z,13.75
2019-05-07T08:26:08.390Z,13.73
2019-05-07T08:27:08.390Z,13.70
2019-05-07T08:28:08.369Z,13.65
2019-05-07T08:29:08.353Z,13.64
2019-05-07T08:30:08.341Z,13.64
2019-05-07T08:31:08.321Z,13.62
2019-05-07T08:32:08.313Z,13.61
2019-05-07T08:33:09.811Z,13.57
2019-05-07T08:34:08.283Z,13.52
2019-05-07T08:35:08.270Z,13.50
2019-05-07T08:36:08.257Z,13.65
2019-05-07T08:37:08.244Z,13.65
2019-05-07T08:38:08.229Z,13.80
2019-05-07T08:39:08.230Z,13.70
2019-05-07T08:40:08.209Z,13.82
2019-05-07T08:41:08.185Z,13.87
2019-05-07T08:42:08.171Z,13.98
2019-05-07T08:43:08.161Z,14.12
2019-05-07T08:44:12.312Z,14.08
2019-05-07T08:45:08.170Z,14.16
2019-05-07T08:46:08.123Z,14.28
2019-05-07T08:47:08.115Z,14.38
2019-05-07T08:48:08.097Z,14.56
2019-05-07T08:49:08.082Z,14.67
2019-05-07T08:50:08.086Z,14.79
2019-05-07T08:51:08.047Z,14.90
2019-05-07T08:52:08.043Z,14.99
2019-05-07T08:53:08.031Z,15.02
2019-05-07T08:54:08.014Z,15.10
2019-05-07T08:55:08.004Z,15.17
2019-05-07T08:56:07.991Z,15.25
2019-05-07T08:57:07.982Z,15.39
2019-05-07T08:58:07.966Z,15.33
2019-05-07T08:59:07.954Z,15.39
2019-05-07T09:00:07.941Z,15.48
2019-05-07T09:01:07.935Z,15.55
2019-05-07T09:02:07.911Z,15.73
2019-05-07T09:03:19.319Z,15.88
2019-05-07T09:04:07.923Z,16.08
2019-05-07T09:05:09.339Z,16.28
2019-05-07T09:06:07.871Z,16.49
2019-05-07T09:07:07.859Z,16.58
2019-05-07T09:08:07.847Z,16.76
2019-05-07T09:09:07.835Z,16.92
2019-05-07T09:10:07.826Z,17.05
2019-05-07T09:11:07.815Z,17.14
2019-05-07T09:12:07.804Z,16.95
2019-05-07T09:13:07.802Z,16.83
2019-05-07T09:14:07.785Z,16.76
2019-05-07T09:15:07.771Z,16.74
2019-05-07T09:16:07.759Z,16.73
2019-05-07T09:17:07.743Z,16.77
2019-05-07T09:18:07.736Z,16.77
2019-05-07T09:19:07.727Z,16.79
2019-05-07T09:20:09.306Z,16.87
2019-05-07T09:21:07.706Z,16.92
2019-05-07T09:22:07.691Z,16.94
2019-05-07T09:23:07.682Z,17.01
2019-05-07T09:24:07.678Z,17.02
2019-05-07T09:25:07.663Z,17.12
2019-05-07T09:26:07.656Z,17.13
2019-05-07T09:27:07.633Z,16.94
2019-05-07T09:28:07.635Z,16.74
2019-05-07T09:29:07.620Z,16.66
2019-05-07T09:30:07.625Z,16.66
2019-05-07T09:31:07.595Z,16.74
2019-05-07T09:32:07.590Z,16.69
2019-05-07T09:33:07.578Z,16.69
2019-05-07T09:34:07.566Z,16.73
2019-05-07T09:35:07.552Z,16.59
2019-05-07T09:36:07.540Z,16.59
2019-05-07T09:37:07.524Z,16.61
2019-05-07T09:38:07.517Z,16.64
2019-05-07T09:39:07.507Z,16.68
2019-05-07T09:40:07.516Z,16.74
2019-05-07T09:41:07.488Z,16.86
2019-05-07T09:42:07.479Z,17.04
2019-05-07T09:43:07.460Z,16.91
2019-05-07T09:44:07.472Z,16.92
2019-05-07T09:45:07.439Z,16.83
2019-05-07T09:46:07.430Z,16.82
2019-05-07T09:47:07.418Z,16.80
2019-05-07T09:48:07.410Z,16.89
2019-05-07T09:49:07.392Z,16.94
2019-05-07T09:50:08.835Z,16.92
2019-05-07T09:51:07.368Z,17.02
2019-05-07T09:52:07.362Z,17.04
2019-05-07T09:53:07.367Z,17.09
2019-05-07T09:54:07.345Z,17.09
2019-05-07T09:55:14.877Z,17.10
2019-05-07T09:56:07.316Z,16.97
2019-05-07T09:57:24.587Z,17.10
2019-05-07T09:58:07.298Z,17.14
2019-05-07T09:59:07.282Z,17.14
2019-05-07T10:00:07.275Z,17.14
2019-05-07T10:01:07.259Z,17.05
2019-05-07T10:02:07.255Z,17.07
2019-05-07T10:03:07.238Z,16.98
2019-05-07T10:04:07.226Z,16.87
2019-05-07T10:05:07.215Z,16.74
2019-05-07T10:06:07.196Z,16.62
2019-05-07T10:07:07.193Z,16.55
2019-05-07T10:08:07.174Z,16.25
2019-05-07T10:09:07.165Z,16.24
2019-05-07T10:10:07.153Z,16.12
2019-05-07T10:11:07.149Z,15.98
2019-05-07T10:12:07.138Z,15.90
2019-05-07T10:13:07.125Z,15.72
2019-05-07T10:14:07.120Z,15.50
2019-05-07T10:15:07.099Z,15.39
2019-05-07T10:16:07.829Z,15.35
2019-05-07T10:17:07.075Z,15.35
2019-05-07T10:18:07.061Z,15.29
2019-05-07T10:19:07.042Z,15.27
2019-05-07T10:20:18.278Z,15.19
2019-05-07T10:21:07.020Z,15.04
2019-05-07T10:22:07.014Z,15.00
2019-05-07T10:23:07.002Z,15.04
2019-05-07T10:24:06.985Z,15.10
2019-05-07T10:25:06.969Z,15.05
2019-05-07T10:26:06.957Z,15.02
2019-05-07T10:27:06.948Z,15.08
2019-05-07T10:28:06.939Z,15.11
2019-05-07T10:29:06.923Z,15.05
2019-05-07T10:30:06.913Z,15.08
2019-05-07T10:31:06.895Z,15.12
2019-05-07T10:32:06.888Z,15.15
2019-05-07T10:33:06.869Z,15.26
2019-05-07T10:34:06.857Z,15.32
2019-05-07T10:35:06.846Z,15.33
2019-05-07T10:36:06.836Z,15.36
2019-05-07T10:37:06.828Z,15.44
2019-05-07T10:38:06.806Z,15.48
2019-05-07T10:39:06.792Z,15.52
2019-05-07T10:40:06.780Z,15.51
2019-05-07T10:41:06.760Z,15.60
2019-05-07T10:42:06.753Z,15.57
2019-05-07T10:43:06.744Z,15.67
2019-05-07T10:44:06.730Z,15.81
2019-05-07T10:45:06.717Z,15.91
2019-05-07T10:46:06.705Z,16.10
2019-05-07T10:47:06.695Z,16.26
2019-05-07T10:48:06.681Z,16.59
2019-05-07T10:49:06.670Z,16.77
2019-05-07T10:50:06.660Z,16.98
2019-05-07T10:51:06.648Z,17.02
2019-05-07T10:52:06.634Z,17.17
2019-05-07T10:53:06.624Z,17.09
2019-05-07T10:54:06.610Z,17.23
2019-05-07T10:55:06.600Z,17.30
2019-05-07T10:56:06.591Z,17.53
2019-05-07T10:57:06.580Z,17.69
2019-05-07T10:58:06.569Z,18.02
2019-05-07T10:59:06.562Z,18.13
2019-05-07T11:00:06.569Z,18.31
2019-05-07T11:01:06.537Z,18.63
2019-05-07T11:02:06.526Z,18.73
2019-05-07T11:03:06.515Z,19.17
2019-05-07T11:04:06.508Z,19.41
2019-05-07T11:05:06.513Z,19.56
2019-05-07T11:06:06.486Z,19.81
2019-05-07T11:07:06.477Z,19.97
2019-05-07T11:08:06.472Z,20.10
2019-05-07T11:09:06.465Z,20.18
2019-05-07T11:10:06.452Z,20.42
2019-05-07T11:11:06.445Z,20.53
2019-05-07T11:12:06.435Z,20.68
2019-05-07T11:13:06.426Z,20.74
2019-05-07T11:14:06.422Z,20.89
2019-05-07T11:15:06.411Z,20.98
2019-05-07T11:16:06.405Z,21.15
2019-05-07T11:17:06.396Z,21.28
2019-05-07T11:18:06.399Z,21.40
2019-05-07T11:19:06.382Z,21.40
2019-05-07T11:20:06.375Z,21.28
2019-05-07T11:21:06.366Z,21.23
2019-05-07T11:22:06.354Z,21.20
2019-05-07T11:23:06.351Z,21.25
2019-05-07T11:24:06.353Z,21.29
2019-05-07T11:25:06.338Z,21.50
2019-05-07T11:26:06.329Z,21.77
2019-05-07T11:27:06.329Z,22.00
2019-05-07T11:28:06.318Z,22.12
2019-05-07T11:29:06.317Z,22.23
2019-05-07T11:30:06.303Z,22.30
2019-05-07T11:31:06.301Z,22.28
2019-05-07T11:32:06.294Z,22.22
2019-05-07T11:33:06.287Z,22.04
2019-05-07T11:34:06.281Z,21.99
2019-05-07T11:35:06.276Z,21.78
2019-05-07T11:36:06.268Z,21.72
2019-05-07T11:37:06.265Z,21.51
2019-05-07T11:38:17.743Z,21.43
2019-05-07T11:39:06.252Z,21.28
2019-05-07T11:40:06.245Z,21.11
2019-05-07T11:41:06.236Z,21.03
2019-05-07T11:42:06.228Z,20.88
2019-05-07T11:43:06.223Z,20.73
2019-05-07T11:44:06.342Z,20.64
2019-05-07T11:45:06.206Z,20.34
2019-05-07T11:46:06.203Z,20.10
2019-05-07T11:47:06.194Z,19.92
2019-05-07T11:48:06.189Z,19.64
2019-05-07T11:49:06.178Z,19.59
2019-05-07T11:50:06.170Z,19.39
2019-05-07T11:51:06.162Z,19.22
2019-05-07T11:52:06.149Z,19.11
2019-05-07T11:53:06.142Z,18.92
2019-05-07T11:54:06.133Z,18.88
2019-05-07T11:55:06.176Z,18.74
2019-05-07T11:56:06.116Z,18.73
2019-05-07T11:57:06.106Z,18.70
2019-05-07T11:58:06.094Z,18.67
2019-05-07T11:59:06.089Z,18.49
2019-05-07T12:00:06.078Z,18.30
2019-05-07T12:01:06.067Z,18.18
2019-05-07T12:02:06.059Z,18.16
2019-05-07T12:03:06.048Z,18.26
2019-05-07T12:04:06.039Z,18.31
2019-05-07T12:05:06.034Z,18.41
2019-05-07T12:06:06.018Z,18.70
2019-05-07T12:07:06.017Z,18.74
2019-05-07T12:08:06.007Z,18.88
2019-05-07T12:09:05.994Z,18.96
2019-05-07T12:10:05.987Z,18.91
2019-05-07T12:11:07.472Z,18.85
2019-05-07T12:12:05.971Z,18.73
2019-05-07T12:13:05.961Z,18.71
2019-05-07T12:14:05.950Z,18.68
2019-05-07T12:15:05.944Z,18.78
2019-05-07T12:16:05.937Z,18.79
2019-05-07T12:17:05.926Z,18.88
2019-05-07T12:18:05.918Z,18.86
2019-05-07T12:19:05.909Z,18.91
2019-05-07T12:20:05.904Z,18.85
2019-05-07T12:21:17.505Z,18.83
2019-05-07T12:22:05.887Z,18.91
2019-05-07T12:23:05.878Z,18.73
2019-05-07T12:24:05.876Z,18.70
2019-05-07T12:25:05.859Z,18.68
2019-05-07T12:26:05.851Z,18.68
2019-05-07T12:27:05.842Z,18.76
2019-05-07T12:28:05.835Z,18.70
2019-05-07T12:29:05.823Z,18.60
2019-05-07T12:30:05.872Z,18.41
2019-05-07T12:31:05.808Z,18.37
2019-05-07T12:32:05.797Z,18.46
2019-05-07T12:33:05.788Z,18.48
2019-05-07T12:34:05.780Z,18.55
2019-05-07T12:35:05.773Z,18.55
2019-05-07T12:36:05.764Z,18.58
2019-05-07T12:37:05.756Z,18.52
2019-05-07T12:38:05.749Z,18.39
2019-05-07T12:39:05.737Z,18.27
2019-05-07T12:40:05.729Z,18.21
2019-05-07T12:41:05.717Z,18.09
2019-05-07T12:42:05.712Z,17.91
2019-05-07T12:43:05.699Z,17.93
2019-05-07T12:44:05.689Z,18.03
2019-05-07T12:45:05.680Z,18.05
2019-05-07T12:46:05.669Z,18.19
2019-05-07T12:47:05.657Z,18.39
2019-05-07T12:48:05.651Z,18.67
2019-05-07T12:49:05.642Z,18.85
2019-05-07T12:50:05.662Z,19.34
2019-05-07T12:51:05.626Z,19.59
2019-05-07T12:52:05.619Z,20.07
2019-05-07T12:53:05.609Z,20.19
2019-05-07T12:54:05.603Z,20.33
2019-05-07T12:55:05.606Z,20.26
2019-05-07T12:56:05.591Z,20.00
2019-05-07T12:57:05.582Z,19.79
2019-05-07T12:58:05.577Z,19.48
2019-05-07T12:59:05.567Z,19.35
2019-05-07T13:00:05.562Z,19.26
2019-05-07T13:01:05.552Z,19.04
2019-05-07T13:02:17.888Z,18.78
2019-05-07T13:03:05.536Z,18.63
2019-05-07T13:04:05.528Z,18.36
2019-05-07T13:05:05.520Z,18.06
2019-05-07T13:06:05.510Z,17.82
2019-05-07T13:07:05.501Z,17.63
2019-05-07T13:08:05.492Z,17.57
2019-05-07T13:09:05.481Z,17.50
2019-05-07T13:10:08.400Z,17.57
2019-05-07T13:11:05.468Z,17.69
2019-05-07T13:12:05.457Z,17.82
2019-05-07T13:13:05.445Z,18.23
2019-05-07T13:14:05.435Z,18.57
2019-05-07T13:15:05.484Z,18.91
2019-05-07T13:16:05.422Z,19.41
2019-05-07T13:17:05.418Z,19.85
2019-05-07T13:18:05.412Z,20.18
2019-05-07T13:19:05.404Z,20.70
2019-05-07T13:20:05.406Z,21.10
2019-05-07T13:21:05.393Z,21.50
2019-05-07T13:22:05.392Z,21.80
2019-05-07T13:23:05.390Z,22.00
2019-05-07T13:24:05.386Z,22.26
2019-05-07T13:25:05.385Z,22.43
2019-05-07T13:26:05.383Z,22.96
2019-05-07T13:27:05.382Z,23.36
2019-05-07T13:28:05.381Z,23.67
2019-05-07T13:29:05.381Z,23.89
2019-05-07T13:30:05.378Z,24.16
2019-05-07T13:31:05.375Z,24.36
2019-05-07T13:32:05.382Z,24.40
2019-05-07T13:33:05.375Z,24.24
2019-05-07T13:34:05.375Z,23.89
2019-05-07T13:35:05.378Z,23.70
2019-05-07T13:36:05.374Z,23.44
2019-05-07T13:37:05.369Z,23.17
2019-05-07T13:38:05.396Z,22.92
2019-05-07T13:39:05.366Z,22.68
2019-05-07T13:40:05.364Z,22.40
2019-05-07T13:41:05.361Z,22.30
2019-05-07T13:42:05.362Z,22.19
2019-05-07T13:43:05.355Z,21.92
2019-05-07T13:44:05.353Z,21.75
2019-05-07T13:45:05.343Z,21.66
2019-05-07T13:46:05.347Z,21.60
2019-05-07T13:47:05.334Z,21.41
2019-05-07T13:48:05.333Z,21.40
2019-05-07T13:49:05.328Z,21.53
2019-05-07T13:50:05.321Z,21.75
2019-05-07T13:51:05.320Z,21.84
2019-05-07T13:52:05.320Z,22.07
2019-05-07T13:53:05.308Z,22.18
2019-05-07T13:54:05.304Z,22.12
2019-05-07T13:55:05.325Z,22.10
2019-05-07T13:56:05.298Z,22.06
2019-05-07T13:57:05.295Z,21.97
2019-05-07T13:58:05.289Z,21.78
2019-05-07T13:59:05.285Z,21.47
2019-05-07T14:00:05.299Z,21.04
2019-05-07T14:01:05.275Z,20.77
2019-05-07T14:02:05.272Z,20.56
2019-05-07T14:03:05.266Z,20.21
2019-05-07T14:04:05.259Z,20.02
2019-05-07T14:05:05.251Z,19.85
2019-05-07T14:06:05.246Z,19.59
2019-05-07T14:07:05.241Z,19.55
2019-05-07T14:08:05.238Z,19.34
2019-05-07T14:09:05.225Z,19.23
2019-05-07T14:10:05.220Z,19.01
2019-05-07T14:11:05.216Z,18.85
2019-05-07T14:12:05.204Z,18.70
2019-05-07T14:13:11.447Z,18.70
2019-05-07T14:14:05.185Z,18.64
2019-05-07T14:15:05.175Z,18.55
2019-05-07T14:16:05.174Z,18.42
2019-05-07T14:17:05.158Z,18.18
2019-05-07T14:18:05.150Z,17.98
2019-05-07T14:19:05.143Z,17.87
2019-05-07T14:20:05.131Z,17.52
2019-05-07T14:21:05.118Z,17.22
2019-05-07T14:22:15.443Z,17.01
2019-05-07T14:23:05.107Z,16.84
2019-05-07T14:24:05.091Z,16.59
2019-05-07T14:25:05.082Z,16.54
2019-05-07T14:26:05.066Z,16.40
2019-05-07T14:27:05.056Z,16.21
2019-05-07T14:28:05.044Z,16.10
2019-05-07T14:29:05.036Z,15.96
2019-05-07T14:30:05.025Z,15.94
2019-05-07T14:31:05.007Z,15.85
2019-05-07T14:32:05.036Z,15.92
2019-05-07T14:33:06.105Z,15.76
2019-05-07T14:34:04.972Z,15.73
2019-05-07T14:35:04.963Z,15.69
2019-05-07T14:36:04.951Z,15.54
2019-05-07T14:37:04.939Z,15.54
2019-05-07T14:38:04.924Z,15.55
2019-05-07T14:39:04.916Z,15.48
2019-05-07T14:40:04.898Z,15.41
2019-05-07T14:41:04.883Z,15.33
2019-05-07T14:42:04.873Z,15.17
2019-05-07T14:43:04.859Z,15.18
2019-05-07T14:44:04.846Z,15.18
2019-05-07T14:45:04.835Z,15.18
2019-05-07T14:46:04.822Z,15.15
2019-05-07T14:47:04.806Z,15.19
2019-05-07T14:48:04.793Z,15.22
2019-05-07T14:49:04.783Z,15.22
2019-05-07T14:50:04.769Z,15.18
2019-05-07T14:51:04.755Z,15.17
2019-05-07T14:52:04.740Z,15.25
2019-05-07T14:53:04.730Z,15.27
2019-05-07T14:54:04.717Z,15.19
2019-05-07T14:55:05.308Z,15.32
2019-05-07T14:56:04.691Z,15.35
2019-05-07T14:57:04.677Z,15.41
2019-05-07T14:58:04.666Z,15.41
2019-05-07T14:59:04.651Z,15.39
2019-05-07T15:00:04.640Z,15.36
2019-05-07T15:01:04.627Z,15.33
2019-05-07T15:02:04.615Z,15.32
2019-05-07T15:03:04.597Z,15.39
2019-05-07T15:04:04.589Z,15.36
2019-05-07T15:05:04.571Z,15.44
2019-05-07T15:06:04.558Z,15.76
2019-05-07T15:07:04.546Z,16.18
2019-05-07T15:08:10.613Z,16.68
2019-05-07T15:09:04.523Z,17.17
2019-05-07T15:10:04.509Z,17.53
2019-05-07T15:11:04.529Z,17.63
2019-05-07T15:12:04.491Z,17.60
2019-05-07T15:13:04.475Z,17.65
2019-05-07T15:14:04.463Z,17.80
2019-05-07T15:15:04.458Z,18.19
2019-05-07T15:16:04.443Z,18.68
2019-05-07T15:17:04.429Z,19.00
2019-05-07T15:18:04.459Z,19.32
2019-05-07T15:19:04.453Z,19.47
2019-05-07T15:20:04.398Z,19.34
2019-05-07T15:21:04.388Z,19.38
2019-05-07T15:22:04.381Z,19.29
2019-05-07T15:23:04.368Z,19.38
2019-05-07T15:24:04.365Z,19.59
2019-05-07T15:25:04.350Z,19.55
2019-05-07T15:26:04.936Z,19.49
2019-05-07T15:27:04.331Z,19.41
2019-05-07T15:28:04.321Z,19.20
2019-05-07T15:29:04.322Z,18.83
2019-05-07T15:30:04.298Z,18.68
2019-05-07T15:31:04.288Z,18.64
2019-05-07T15:32:04.294Z,18.51
2019-05-07T15:33:04.267Z,18.31
2019-05-07T15:34:04.258Z,18.18
2019-05-07T15:35:04.254Z,18.11
2019-05-07T15:36:06.528Z,17.94
2019-05-07T15:37:04.225Z,17.82
2019-05-07T15:38:04.215Z,17.78
2019-05-07T15:39:04.201Z,17.66
2019-05-07T15:40:04.187Z,17.47
2019-05-07T15:41:04.186Z,17.28
2019-05-07T15:42:04.182Z,17.16
2019-05-07T15:43:04.157Z,17.12
2019-05-07T15:44:04.170Z,16.94
2019-05-07T15:45:04.132Z,16.79
2019-05-07T15:46:04.123Z,16.68
2019-05-07T15:47:04.113Z,16.59
2019-05-07T15:48:04.097Z,16.57
2019-05-07T15:49:04.086Z,16.46
2019-05-07T15:50:04.094Z,16.44
2019-05-07T15:51:04.066Z,16.41
2019-05-07T15:52:04.051Z,16.40
2019-05-07T15:53:04.040Z,16.46
2019-05-07T15:54:04.024Z,16.49
2019-05-07T15:55:04.014Z,16.47
2019-05-07T15:56:03.999Z,16.41
2019-05-07T15:57:03.997Z,16.47
2019-05-07T15:58:03.980Z,16.41
2019-05-07T15:59:03.965Z,16.51
2019-05-07T16:15:46.014Z,16.47
2019-05-07T16:16:46.034Z,16.49
2019-05-07T16:17:46.043Z,16.47
2019-05-07T16:18:45.982Z,16.43
2019-05-07T16:19:45.936Z,16.44
2019-05-07T16:20:45.923Z,16.37
2019-05-07T16:21:45.911Z,16.22
2019-05-07T16:22:45.895Z,16.12
2019-05-07T16:23:45.878Z,16.09
2019-05-07T16:24:45.864Z,16.06
2019-05-07T16:25:45.849Z,16.02
2019-05-07T16:26:45.838Z,15.98
2019-05-07T16:27:45.823Z,15.99
2019-05-07T16:28:45.809Z,15.88
2019-05-07T16:29:45.794Z,15.92
2019-05-07T16:30:45.784Z,15.88
2019-05-07T16:31:48.650Z,15.91
2019-05-07T16:32:45.758Z,15.84
2019-05-07T16:33:45.743Z,15.69
2019-05-07T16:34:45.726Z,15.65
2019-05-07T16:35:45.715Z,15.66
2019-05-07T16:36:45.698Z,15.51
2019-05-07T16:37:45.687Z,15.57
2019-05-07T16:38:45.674Z,15.47
2019-05-07T16:39:45.660Z,15.36
2019-05-07T16:40:45.645Z,15.29
2019-05-07T16:41:45.629Z,15.25
2019-05-07T16:42:45.619Z,15.07
2019-05-07T16:43:45.604Z,15.07
2019-05-07T16:44:45.592Z,15.10
2019-05-07T16:45:45.579Z,15.07
2019-05-07T16:46:45.583Z,15.07
2019-05-07T16:47:45.549Z,15.05
2019-05-07T16:48:45.537Z,15.00
2019-05-07T16:49:45.521Z,14.99
2019-05-07T16:50:45.508Z,15.02
2019-05-07T16:51:45.495Z,15.04
2019-05-07T16:52:45.481Z,14.90
2019-05-07T16:53:45.478Z,14.81
2019-05-07T16:54:45.454Z,14.78
2019-05-07T16:55:45.442Z,14.77
2019-05-07T16:56:45.426Z,14.58
2019-05-07T16:57:45.413Z,14.52
2019-05-07T16:58:45.395Z,14.52
2019-05-07T16:59:45.383Z,14.41
2019-05-07T17:00:45.368Z,14.38
2019-05-07T17:01:45.355Z,14.20
2019-05-07T17:02:45.340Z,14.23
2019-05-07T17:03:45.325Z,14.22
2019-05-07T17:04:45.314Z,14.15
2019-05-07T17:05:45.298Z,14.11
2019-05-07T17:06:45.275Z,14.12
2019-05-07T17:07:45.272Z,14.05
2019-05-07T17:08:45.257Z,13.97
2019-05-07T17:09:45.241Z,13.97
2019-05-07T17:10:45.227Z,13.87
2019-05-07T17:11:45.212Z,13.83
2019-05-07T17:12:45.200Z,13.68
2019-05-07T17:13:45.185Z,13.73
2019-05-07T17:14:45.172Z,13.64
2019-05-07T17:15:45.156Z,13.68
2019-05-07T17:16:45.140Z,13.64
2019-05-07T17:17:45.128Z,13.67
2019-05-07T17:18:45.111Z,13.54
2019-05-07T17:19:45.098Z,13.52
2019-05-07T17:20:45.083Z,13.49
2019-05-07T17:21:45.067Z,13.52
2019-05-07T17:22:45.054Z,13.46
2019-05-07T17:23:45.039Z,13.47
2019-05-07T17:24:45.026Z,13.36
2019-05-07T17:25:45.008Z,13.40
2019-05-07T17:26:44.995Z,13.28
2019-05-07T17:27:44.979Z,13.30
2019-05-07T17:28:44.967Z,13.21
2019-05-07T17:29:44.951Z,13.17
2019-05-07T17:30:44.936Z,13.11
2019-05-07T17:31:44.925Z,13.19
2019-05-07T17:32:44.905Z,13.08
2019-05-07T17:33:44.890Z,13.05
2019-05-07T17:34:44.882Z,13.03
2019-05-07T17:35:46.249Z,12.88
2019-05-07T17:36:44.867Z,12.94
2019-05-07T17:37:44.832Z,12.86
2019-05-07T17:38:44.818Z,12.86
2019-05-07T17:39:44.801Z,12.69
2019-05-07T17:40:44.788Z,12.69
2019-05-07T17:41:44.773Z,12.63
2019-05-07T17:42:44.764Z,12.54
2019-05-07T17:43:44.740Z,12.66
2019-05-07T17:44:44.726Z,12.54
2019-05-07T17:45:44.715Z,12.51
2019-05-07T17:46:46.263Z,12.47
2019-05-07T17:47:44.682Z,12.32
2019-05-07T17:48:44.666Z,12.23
2019-05-07T17:49:44.651Z,12.18
2019-05-07T17:50:44.637Z,12.12
2019-05-07T17:51:44.625Z,12.14
2019-05-07T17:52:44.605Z,11.99
2019-05-07T17:53:56.851Z,12.05
2019-05-07T17:54:44.576Z,11.95
2019-05-07T17:55:44.560Z,11.86
2019-05-07T17:56:44.551Z,11.78
2019-05-07T17:57:44.530Z,11.73
2019-05-07T17:58:44.514Z,11.63
2019-05-07T17:59:44.499Z,11.60
2019-05-07T18:00:44.487Z,11.51
2019-05-07T18:01:44.468Z,11.45
2019-05-07T18:02:44.455Z,11.37
2019-05-07T18:03:44.450Z,11.37
2019-05-07T18:04:51.019Z,11.26
2019-05-07T18:05:44.410Z,11.34
2019-05-07T18:06:44.387Z,11.18
2019-05-07T18:07:44.376Z,11.22
2019-05-07T18:08:44.361Z,11.10